New Richmond, WI

02:01 AM CST del 20 Dicembre 2014 (GMT -0600)
Saint Paul Downtown-Holman | Change Station
CLOSE
Current Station
Aeroporto
Location: St. Paul,
Altitudine: 702 ft
Stazioni meteo nelle vicinanze

Alt. 702 ft 44.93 °N, 93.06 °W | Updated 8 minutes ago

Coperto
Coperto
29 °F
Sembra 20 °F
N
10
Vento Variabile Vento da SSE

Oggi
Massima -- | Minima -- °F
--% Possibilità di precip.
Ieri
Massima -- | Minima -- °F
Precip. -- in
7:45 AM 4:30 PM
Luna calante, 4% visible
Pressione 30.21 in
Visibilità 7.0 miglia
Nuvole Nubi sparse 1500 ft
Coperto 3200 ft
Raffreddamento del vento 20 °F
Punto di rugiada 25 °F
Umidità 85%
Piovosità 0.00 in
Spessore del manto nevoso Non disponibile.
Raggi UV 0 fuori da 12
Polline .10 fuori da 12
Qualità dell'aria Non disponibile.
Flu Activity Non disponibile.
METAR KSTP 200753Z AUTO 15009KT 7SM SCT015 OVC032 M02/M04 A3019 RMK AO2 SLP229 T10171039

More Conditions Fewer Conditions

Pressione 30.21 in
Visibilità 7.0 miglia
Nuvole Nubi sparse 1500 ft
Coperto 3200 ft
Raffreddamento del vento 20 °F
Punto di rugiada 25 °F
Umidità 85%
Piovosità 0.00 in
Spessore del manto nevoso Non disponibile.
Raggi UV 0 fuori da 12
Polline .10 fuori da 12
Qualità dell'aria Non disponibile.
Flu Activity Non disponibile.
METAR KSTP 200753Z AUTO 15009KT 7SM SCT015 OVC032 M02/M04 A3019 RMK AO2 SLP229 T10171039

More Conditions Fewer Conditions

10-Day Weather Forecast

Almanac

Astronomia

Dec. 20, 2014 Alba Tramonto
Ora attuale
Crepuscolo civile
Crepuscolo nautico
Crepuscolo astronomico
Luna
Estensione della luce visibile
Lunghezza del giorno
Tomorrow will be .
, % of the Moon is Illuminated

Gli estremi di oggi

State Highs State Lows

Community

WunderPhotos

Upload Photos

1,779,146 foto caricate!

WunderBlogs® & News

Nearby

Qualità dell'aria

  Qualità dell'aria Indice AQ Inquinante
Not available.

Profondità neve

Stazione Profondità Altitudine

Attività sismica

Città  Distanza Mag. Data & Ora
Minimo Magnitudo Mostrato è 2.5.

Temperature delle acque costiere

Località Temperatura

Stazioni meteo nelle vicinanze